Time;durP1;ratioP1;P1;durP2;ratioP2;P2;SDS_P1;SDS_P2;PMS_P1;PMS_P2;Temp;Humidity;BMP_temperature;BMP_pressure;BME280_temperature;BME280_humidity;BME280_pressure;Samples;Min_cycle;Max_cycle;Signal;HPM_P1;HPM_P2
2022/01/16 00:04:28;;;;;;;7.60;6.90;;;;;;;;;;5117219;28;20565;-59
2022/01/16 00:07:01;;;;;;;7.35;6.55;;;;;;;;;;5119029;28;20277;-59
2022/01/16 00:09:29;;;;;;;8.10;7.30;;;;;;;;;;5119521;28;20211;-59
2022/01/16 00:11:59;;;;;;;7.78;7.00;;;;;;;;;;5118628;27;20333;-59
2022/01/16 00:14:27;;;;;;;7.47;6.72;;;;;;;;;;5118413;28;20241;-59
2022/01/16 00:16:55;;;;;;;7.53;6.72;;;;;;;;;;5118485;28;20203;-59
2022/01/16 00:19:22;;;;;;;7.10;6.40;;;;;;;;;;5119025;28;20203;-59
2022/01/16 00:21:50;;;;;;;7.00;6.30;;;;;;;;;;5118267;28;20238;-59
2022/01/16 00:24:18;;;;;;;6.95;6.35;;;;;;;;;;5118247;28;20285;-59
2022/01/16 00:26:46;;;;;;;7.57;6.88;;;;;;;;;;5118772;28;20199;-59
2022/01/16 00:29:13;;;;;;;7.28;6.57;;;;;;;;;;5118543;28;20195;-59
2022/01/16 00:31:41;;;;;;;6.70;6.00;;;;;;;;;;5118394;28;20602;-59
2022/01/16 00:34:09;;;;;;;6.40;5.78;;;;;;;;;;5118371;28;20191;-59
2022/01/16 00:36:37;;;;;;;6.90;6.20;;;;;;;;;;5118193;28;20229;-60
2022/01/16 00:39:05;;;;;;;6.63;5.97;;;;;;;;;;5118207;28;20522;-59
2022/01/16 00:41:35;;;;;;;6.65;6.05;;;;;;;;;;5118644;28;20203;-59
2022/01/16 00:44:02;;;;;;;7.10;6.40;;;;;;;;;;5118588;28;20306;-60
2022/01/16 00:46:30;;;;;;;6.63;5.97;;;;;;;;;;5118571;28;20259;-59
2022/01/16 00:48:57;;;;;;;6.32;5.72;;;;;;;;;;5118136;28;20195;-59
2022/01/16 00:51:25;;;;;;;5.97;5.38;;;;;;;;;;5118437;28;20210;-59
2022/01/16 00:53:52;;;;;;;6.32;5.72;;;;;;;;;;5118592;28;20222;-59
2022/01/16 00:56:21;;;;;;;5.95;5.45;;;;;;;;;;5118340;28;20199;-59
2022/01/16 00:58:50;;;;;;;5.65;5.13;;;;;;;;;;5119022;28;20222;-59
2022/01/16 01:01:18;;;;;;;6.00;5.40;;;;;;;;;;5118027;28;20493;-59
2022/01/16 01:03:45;;;;;;;5.63;5.13;;;;;;;;;;5118085;28;20251;-59
2022/01/16 01:06:12;;;;;;;5.85;5.32;;;;;;;;;;5117668;28;20203;-59
2022/01/16 01:08:40;;;;;;;5.90;5.30;;;;;;;;;;5117349;28;20199;-60
2022/01/16 01:11:13;;;;;;;5.50;5.00;;;;;;;;;;5118040;28;20214;-59
2022/01/16 01:16:38;;;;;;;6.10;5.50;;;;;;;;;;5099841;28;20264;-59
2022/01/16 01:19:05;;;;;;;5.55;5.05;;;;;;;;;;5117948;28;20282;-59
2022/01/16 01:21:33;;;;;;;5.75;5.22;;;;;;;;;;5117723;28;20321;-59
2022/01/16 01:24:01;;;;;;;5.03;4.63;;;;;;;;;;5117152;28;20689;-59
2022/01/16 01:26:35;;;;;;;4.82;4.43;;;;;;;;;;5117300;28;20210;-59
2022/01/16 01:29:02;;;;;;;5.25;4.72;;;;;;;;;;5117430;28;20206;-59
2022/01/16 01:31:31;;;;;;;5.88;5.38;;;;;;;;;;5117328;28;20210;-59
2022/01/16 01:33:59;;;;;;;5.00;4.60;;;;;;;;;;5117736;28;20195;-59
2022/01/16 01:36:26;;;;;;;5.50;5.00;;;;;;;;;;5117075;28;20606;-59
2022/01/16 01:38:53;;;;;;;5.15;4.75;;;;;;;;;;5117742;28;20199;-59
2022/01/16 01:41:21;;;;;;;5.53;5.10;;;;;;;;;;5116858;28;20202;-59
2022/01/16 01:52:05;;;;;;;4.88;4.47;;;;;;;;;;5096717;28;20211;-59
2022/01/16 01:54:32;;;;;;;4.90;4.45;;;;;;;;;;5107578;28;20206;-59
2022/01/16 01:57:01;;;;;;;4.68;4.28;;;;;;;;;;5117581;28;20214;-59
2022/01/16 01:59:29;;;;;;;5.10;4.70;;;;;;;;;;5116975;28;20264;-59
2022/01/16 02:01:58;;;;;;;4.82;4.43;;;;;;;;;;5116683;28;20225;-59
2022/01/16 02:04:25;;;;;;;4.63;4.22;;;;;;;;;;5117299;28;20389;-60
2022/01/16 02:06:52;;;;;;;4.97;4.57;;;;;;;;;;5117379;28;20210;-59
2022/01/16 02:09:20;;;;;;;4.97;4.47;;;;;;;;;;5116895;28;20213;-59
2022/01/16 02:11:48;;;;;;;4.80;4.40;;;;;;;;;;5117172;28;20499;-59
2022/01/16 02:14:26;;;;;;;5.30;4.80;;;;;;;;;;5116874;28;20243;-59
2022/01/16 02:28:08;;;;;;;4.95;4.47;;;;;;;;;;5116664;28;20229;-59
2022/01/16 02:36:02;;;;;;;5.00;4.50;;;;;;;;;;5096615;28;20195;-59
2022/01/16 02:38:31;;;;;;;4.40;4.00;;;;;;;;;;5104767;28;20195;-59
2022/01/16 02:41:02;;;;;;;4.18;3.88;;;;;;;;;;5117014;28;20695;-59
2022/01/16 02:43:32;;;;;;;4.38;3.97;;;;;;;;;;5116668;28;20195;-59
2022/01/16 02:46:35;;;;;;;4.47;4.07;;;;;;;;;;5117164;28;20199;-59
2022/01/16 02:48:57;;;;;;;4.57;4.18;;;;;;;;;;5116803;28;20294;-59
2022/01/16 02:51:26;;;;;;;4.53;4.13;;;;;;;;;;5117304;28;20199;-59
2022/01/16 02:53:55;;;;;;;4.00;3.70;;;;;;;;;;5116926;28;20288;-59
2022/01/16 02:56:23;;;;;;;4.20;3.80;;;;;;;;;;5117466;28;20214;-59
2022/01/16 02:58:51;;;;;;;4.75;4.30;;;;;;;;;;5117364;28;20199;-59
2022/01/16 03:01:19;;;;;;;4.70;4.28;;;;;;;;;;5117129;28;20269;-60
2022/01/16 03:03:46;;;;;;;4.40;4.00;;;;;;;;;;5116965;28;20266;-59
2022/01/16 03:06:14;;;;;;;4.55;4.15;;;;;;;;;;5117170;28;20490;-59
2022/01/16 03:08:42;;;;;;;4.88;4.45;;;;;;;;;;5117071;28;20206;-59
2022/01/16 03:11:22;;;;;;;4.35;3.95;;;;;;;;;;5116831;28;20210;-59
2022/01/16 03:13:50;;;;;;;4.57;4.18;;;;;;;;;;5117231;28;20195;-59
2022/01/16 03:16:17;;;;;;;4.45;4.05;;;;;;;;;;5116594;28;20205;-59
2022/01/16 03:24:15;;;;;;;4.43;4.03;;;;;;;;;;5116723;28;20272;-59
2022/01/16 03:26:44;;;;;;;4.50;4.10;;;;;;;;;;5117507;28;20210;-59
2022/01/16 03:29:11;;;;;;;4.18;3.80;;;;;;;;;;5120092;28;20586;-59
2022/01/16 03:31:39;;;;;;;4.28;3.88;;;;;;;;;;5120862;28;20203;-59
2022/01/16 03:34:06;;;;;;;4.60;4.20;;;;;;;;;;5120140;28;20191;-59
2022/01/16 03:36:34;;;;;;;4.38;3.97;;;;;;;;;;5120789;28;20218;-59
2022/01/16 03:39:01;;;;;;;4.50;4.10;;;;;;;;;;5120672;28;20203;-59
2022/01/16 03:41:29;;;;;;;4.30;3.90;;;;;;;;;;5120551;28;20210;-59
2022/01/16 03:44:01;;;;;;;4.43;4.03;;;;;;;;;;5119910;27;20602;-59
2022/01/16 03:46:34;;;;;;;4.35;3.95;;;;;;;;;;5120662;28;20256;-60
2022/01/16 03:49:01;;;;;;;4.30;3.90;;;;;;;;;;5120539;28;20264;-59
2022/01/16 03:51:28;;;;;;;4.43;4.03;;;;;;;;;;5120132;28;20202;-59
2022/01/16 03:53:56;;;;;;;4.57;4.18;;;;;;;;;;5120069;28;20195;-59
2022/01/16 03:56:23;;;;;;;4.50;4.10;;;;;;;;;;5120469;28;20486;-59
2022/01/16 03:58:51;;;;;;;4.40;4.00;;;;;;;;;;5120104;28;20199;-59
2022/01/16 04:01:20;;;;;;;4.38;3.97;;;;;;;;;;5120222;28;20203;-60
2022/01/16 04:03:47;;;;;;;4.38;3.97;;;;;;;;;;5120289;28;20199;-59
2022/01/16 04:06:15;;;;;;;4.50;4.10;;;;;;;;;;5120540;28;20320;-59
2022/01/16 04:08:42;;;;;;;4.85;4.40;;;;;;;;;;5119988;28;20210;-59
2022/01/16 04:11:09;;;;;;;4.93;4.50;;;;;;;;;;5119925;28;20215;-59
2022/01/16 04:13:43;;;;;;;5.00;4.50;;;;;;;;;;5120577;28;20474;-60
2022/01/16 04:16:11;;;;;;;4.60;4.20;;;;;;;;;;5120168;27;20295;-59
2022/01/16 04:18:39;;;;;;;4.80;4.40;;;;;;;;;;5119432;28;20206;-59
2022/01/16 04:21:07;;;;;;;4.53;4.13;;;;;;;;;;5119774;28;20610;-60
2022/01/16 04:23:34;;;;;;;5.10;4.60;;;;;;;;;;5119841;28;20194;-59
2022/01/16 04:26:02;;;;;;;4.47;4.07;;;;;;;;;;5119426;28;20482;-59
2022/01/16 04:28:29;;;;;;;4.93;4.50;;;;;;;;;;5119961;28;20484;-59
2022/01/16 04:30:56;;;;;;;4.90;4.50;;;;;;;;;;5119105;28;20210;-60
2022/01/16 04:33:23;;;;;;;4.55;4.15;;;;;;;;;;5119194;28;20605;-59
2022/01/16 04:35:52;;;;;;;4.63;4.22;;;;;;;;;;5119377;28;20203;-60
2022/01/16 04:38:20;;;;;;;4.82;4.43;;;;;;;;;;5119738;28;20207;-59
2022/01/16 04:46:13;;;;;;;4.53;4.13;;;;;;;;;;5118952;28;20222;-60
2022/01/16 04:48:41;;;;;;;4.20;3.85;;;;;;;;;;5118657;28;20695;-59
2022/01/16 04:51:10;;;;;;;4.38;3.97;;;;;;;;;;5119600;28;20199;-59
2022/01/16 04:53:37;;;;;;;4.43;4.03;;;;;;;;;;5119434;28;20489;-59
2022/01/16 04:56:06;;;;;;;4.78;4.38;;;;;;;;;;5119235;28;20205;-59
2022/01/16 04:58:33;;;;;;;4.60;4.20;;;;;;;;;;5119311;28;20214;-60
2022/01/16 05:01:01;;;;;;;4.30;4.00;;;;;;;;;;5119408;28;20202;-59
2022/01/16 05:03:29;;;;;;;3.85;3.55;;;;;;;;;;5119278;28;20246;-59
2022/01/16 05:05:57;;;;;;;5.00;4.53;;;;;;;;;;5118983;28;20219;-59
2022/01/16 05:08:26;;;;;;;4.60;4.20;;;;;;;;;;5118907;28;20241;-59
2022/01/16 05:10:56;;;;;;;4.10;3.80;;;;;;;;;;5118804;28;20225;-59
2022/01/16 05:13:31;;;;;;;4.60;4.20;;;;;;;;;;5118944;28;20203;-60
2022/01/16 05:18:44;;;;;;;4.35;4.03;;;;;;;;;;5118299;28;20290;-59
2022/01/16 05:21:11;;;;;;;4.10;3.80;;;;;;;;;;5118102;28;20227;-59
2022/01/16 05:23:41;;;;;;;4.45;4.05;;;;;;;;;;5119001;28;20210;-59
2022/01/16 05:26:08;;;;;;;4.18;3.78;;;;;;;;;;5118027;28;20239;-59
2022/01/16 05:28:36;;;;;;;4.28;3.88;;;;;;;;;;5118603;28;20202;-59
2022/01/16 05:31:04;;;;;;;4.20;3.80;;;;;;;;;;5118186;28;20199;-59
2022/01/16 05:33:31;;;;;;;4.28;3.88;;;;;;;;;;5118307;28;20195;-60
2022/01/16 05:35:59;;;;;;;4.10;3.80;;;;;;;;;;5118194;28;20195;-59
2022/01/16 05:38:26;;;;;;;4.03;3.72;;;;;;;;;;5117669;28;20506;-59
2022/01/16 05:40:55;;;;;;;4.07;3.78;;;;;;;;;;5118201;28;20200;-59
2022/01/16 05:43:22;;;;;;;4.05;3.75;;;;;;;;;;5118499;28;20195;-60
2022/01/16 05:45:50;;;;;;;3.80;3.50;;;;;;;;;;5118106;28;20223;-60
2022/01/16 05:48:17;;;;;;;4.00;3.70;;;;;;;;;;5118148;28;20195;-59
2022/01/16 05:50:44;;;;;;;4.13;3.80;;;;;;;;;;5116822;28;20586;-60
2022/01/16 05:53:12;;;;;;;3.72;3.42;;;;;;;;;;5118359;28;20288;-60
2022/01/16 05:55:40;;;;;;;3.60;3.30;;;;;;;;;;5117397;27;20664;-59
2022/01/16 05:58:09;;;;;;;3.90;3.60;;;;;;;;;;5118382;28;20214;-59
2022/01/16 06:00:37;;;;;;;4.10;3.80;;;;;;;;;;5117328;28;20198;-59
2022/01/16 06:03:04;;;;;;;4.25;3.78;;;;;;;;;;5118030;28;20553;-59
2022/01/16 06:05:32;;;;;;;4.38;3.97;;;;;;;;;;5118078;28;20214;-59
2022/01/16 06:08:01;;;;;;;3.50;3.20;;;;;;;;;;5117117;28;20210;-59
2022/01/16 06:10:29;;;;;;;3.65;3.35;;;;;;;;;;5118169;28;20195;-59
2022/01/16 06:12:56;;;;;;;3.90;3.50;;;;;;;;;;5117860;28;20203;-59
2022/01/16 06:15:25;;;;;;;3.47;3.17;;;;;;;;;;5117459;28;20202;-60
2022/01/16 06:17:53;;;;;;;4.30;3.90;;;;;;;;;;5117812;28;20211;-59
2022/01/16 06:20:20;;;;;;;4.15;3.75;;;;;;;;;;5117142;28;20646;-59
2022/01/16 06:22:47;;;;;;;4.22;3.83;;;;;;;;;;5117166;28;20206;-59
2022/01/16 06:25:15;;;;;;;3.85;3.55;;;;;;;;;;5118052;28;20580;-59
2022/01/16 06:27:42;;;;;;;3.83;3.53;;;;;;;;;;5117325;28;20195;-60
2022/01/16 06:30:11;;;;;;;3.53;3.22;;;;;;;;;;5117715;28;20214;-59
2022/01/16 06:32:40;;;;;;;3.90;3.55;;;;;;;;;;5118075;28;20490;-59
2022/01/16 06:35:08;;;;;;;4.43;4.03;;;;;;;;;;5117339;28;20195;-59
2022/01/16 06:37:36;;;;;;;3.97;3.55;;;;;;;;;;5117214;28;20195;-60
2022/01/16 06:40:04;;;;;;;3.50;3.20;;;;;;;;;;5117132;28;20199;-59
2022/01/16 06:42:31;;;;;;;3.75;3.45;;;;;;;;;;5117601;28;20202;-59
2022/01/16 06:44:59;;;;;;;4.20;3.80;;;;;;;;;;5117375;28;20241;-60
2022/01/16 06:47:26;;;;;;;3.97;3.58;;;;;;;;;;5116650;28;20195;-59
2022/01/16 06:49:55;;;;;;;4.18;3.78;;;;;;;;;;5117050;28;20206;-59
2022/01/16 06:52:23;;;;;;;3.80;3.50;;;;;;;;;;5116684;28;20199;-59
2022/01/16 06:54:50;;;;;;;4.05;3.65;;;;;;;;;;5116531;28;20226;-59
2022/01/16 06:57:17;;;;;;;4.18;3.78;;;;;;;;;;5117131;28;20195;-60
2022/01/16 06:59:45;;;;;;;3.83;3.53;;;;;;;;;;5117629;28;20247;-59
2022/01/16 07:02:13;;;;;;;4.32;3.92;;;;;;;;;;5116761;28;20278;-59
2022/01/16 07:04:40;;;;;;;3.70;3.40;;;;;;;;;;5121303;28;20207;-59
2022/01/16 07:07:09;;;;;;;3.95;3.65;;;;;;;;;;5120922;28;20206;-60
2022/01/16 07:09:38;;;;;;;3.55;3.25;;;;;;;;;;5120635;28;20203;-59
2022/01/16 07:12:06;;;;;;;3.85;3.45;;;;;;;;;;5120941;28;20233;-59
2022/01/16 07:14:33;;;;;;;3.72;3.40;;;;;;;;;;5121544;28;20207;-59
2022/01/16 07:17:00;;;;;;;3.80;3.50;;;;;;;;;;5120766;28;20195;-60
2022/01/16 07:19:28;;;;;;;3.95;3.65;;;;;;;;;;5120413;28;20214;-60
2022/01/16 07:21:56;;;;;;;3.85;3.45;;;;;;;;;;5100504;28;20211;-59
2022/01/16 07:24:24;;;;;;;3.58;3.28;;;;;;;;;;5119787;28;20477;-59
2022/01/16 07:26:52;;;;;;;4.05;3.65;;;;;;;;;;5120485;28;20474;-59
2022/01/16 07:29:19;;;;;;;4.20;3.80;;;;;;;;;;5120939;28;20203;-59
2022/01/16 07:31:46;;;;;;;3.58;3.28;;;;;;;;;;5120252;28;20502;-59
2022/01/16 07:34:14;;;;;;;3.20;2.97;;;;;;;;;;5121013;28;20203;-59
2022/01/16 07:36:42;;;;;;;3.80;3.45;;;;;;;;;;5119836;28;20578;-59
2022/01/16 07:39:09;;;;;;;3.40;3.10;;;;;;;;;;5119955;27;20199;-59
2022/01/16 07:41:38;;;;;;;3.60;3.30;;;;;;;;;;5120291;28;20199;-60
2022/01/16 07:44:05;;;;;;;3.35;3.05;;;;;;;;;;5120673;28;20211;-59
2022/01/16 07:46:33;;;;;;;3.50;3.20;;;;;;;;;;5120057;28;20219;-59
2022/01/16 07:49:00;;;;;;;3.15;2.85;;;;;;;;;;5119820;28;20252;-59
2022/01/16 07:51:27;;;;;;;3.60;3.30;;;;;;;;;;5119939;28;20203;-59
2022/01/16 07:53:55;;;;;;;3.58;3.28;;;;;;;;;;5119976;28;20214;-60
2022/01/16 07:56:22;;;;;;;3.40;3.10;;;;;;;;;;5120021;27;20523;-59
2022/01/16 07:58:51;;;;;;;2.80;2.60;;;;;;;;;;5120049;28;20207;-60
2022/01/16 08:01:19;;;;;;;2.95;2.63;;;;;;;;;;5119427;28;20210;-59
2022/01/16 08:03:46;;;;;;;3.40;3.10;;;;;;;;;;5119919;28;20497;-59
2022/01/16 08:06:16;;;;;;;3.17;2.88;;;;;;;;;;5119224;28;20214;-59
2022/01/16 08:08:44;;;;;;;3.30;3.00;;;;;;;;;;5119704;28;20210;-59
2022/01/16 08:11:11;;;;;;;3.17;2.88;;;;;;;;;;5120320;28;20484;-60
2022/01/16 08:13:39;;;;;;;3.28;2.97;;;;;;;;;;5119470;28;20202;-60
2022/01/16 08:16:08;;;;;;;2.92;2.72;;;;;;;;;;5118887;28;20629;-59
2022/01/16 08:18:35;;;;;;;3.08;2.75;;;;;;;;;;5119147;28;20205;-59
2022/01/16 08:21:02;;;;;;;2.67;2.47;;;;;;;;;;5118727;28;20470;-59
2022/01/16 08:23:30;;;;;;;3.20;2.90;;;;;;;;;;5110231;28;20610;-60
2022/01/16 08:25:57;;;;;;;3.20;2.85;;;;;;;;;;5117928;28;20219;-60
2022/01/16 08:28:25;;;;;;;2.42;2.22;;;;;;;;;;5118006;28;20301;-59
2022/01/16 08:30:53;;;;;;;2.80;2.60;;;;;;;;;;5119318;28;20207;-60
2022/01/16 08:33:21;;;;;;;3.22;2.92;;;;;;;;;;5119378;28;20203;-59
2022/01/16 08:35:49;;;;;;;2.75;2.38;;;;;;;;;;5118322;28;20222;-59
2022/01/16 08:38:16;;;;;;;2.60;2.40;;;;;;;;;;5118287;28;20210;-59
2022/01/16 08:40:43;;;;;;;2.85;2.65;;;;;;;;;;5118265;28;20199;-59
2022/01/16 08:43:11;;;;;;;2.67;2.47;;;;;;;;;;5118360;28;20206;-59
2022/01/16 08:45:39;;;;;;;2.97;2.70;;;;;;;;;;5118162;28;20230;-60
2022/01/16 08:48:07;;;;;;;3.05;2.75;;;;;;;;;;5118076;28;20210;-59
2022/01/16 08:50:36;;;;;;;3.78;2.80;;;;;;;;;;5117928;28;20235;-60
2022/01/16 08:53:04;;;;;;;2.42;2.22;;;;;;;;;;5118347;28;20199;-59
2022/01/16 08:55:36;;;;;;;2.50;2.30;;;;;;;;;;5118112;28;20210;-59
2022/01/16 08:58:03;;;;;;;2.60;2.40;;;;;;;;;;5118149;28;20199;-59
2022/01/16 09:00:31;;;;;;;2.75;2.55;;;;;;;;;;5117316;28;20195;-59
2022/01/16 09:02:59;;;;;;;2.50;2.30;;;;;;;;;;5117568;27;20199;-59
2022/01/16 09:05:26;;;;;;;2.38;2.17;;;;;;;;;;5117252;28;20593;-59
2022/01/16 09:07:55;;;;;;;2.47;2.28;;;;;;;;;;5117764;28;20203;-60
2022/01/16 09:10:23;;;;;;;2.20;2.00;;;;;;;;;;5105735;28;20195;-60
2022/01/16 09:12:50;;;;;;;2.53;2.33;;;;;;;;;;5118166;28;20195;-59
2022/01/16 09:15:18;;;;;;;2.65;2.45;;;;;;;;;;5117523;28;20203;-60
2022/01/16 09:17:45;;;;;;;2.50;2.30;;;;;;;;;;5118586;28;20481;-59
2022/01/16 09:20:14;;;;;;;2.65;2.30;;;;;;;;;;5117462;28;20214;-59
2022/01/16 09:22:43;;;;;;;2.30;2.10;;;;;;;;;;5117350;28;20252;-59
2022/01/16 09:25:13;;;;;;;2.58;2.35;;;;;;;;;;5117633;28;20278;-59
2022/01/16 09:27:41;;;;;;;2.60;2.30;;;;;;;;;;5117211;28;20276;-59
2022/01/16 09:30:09;;;;;;;5.40;2.78;;;;;;;;;;5117705;28;20199;-60
2022/01/16 09:32:36;;;;;;;5.68;3.05;;;;;;;;;;5117738;28;20210;-59
2022/01/16 09:35:05;;;;;;;4.93;3.03;;;;;;;;;;5117838;28;20194;-59
2022/01/16 09:37:32;;;;;;;6.18;3.40;;;;;;;;;;5117249;28;20538;-60
2022/01/16 09:40:00;;;;;;;10.55;4.10;;;;;;;;;;5117228;28;20195;-59
2022/01/16 09:42:28;;;;;;;15.68;6.63;;;;;;;;;;5117676;28;20203;-59
2022/01/16 09:44:56;;;;;;;27.15;9.00;;;;;;;;;;5116960;28;20655;-60
2022/01/16 09:47:23;;;;;;;24.95;9.98;;;;;;;;;;5117767;28;20226;-59
2022/01/16 09:49:51;;;;;;;26.33;11.10;;;;;;;;;;5117331;28;20206;-59
2022/01/16 09:52:19;;;;;;;32.67;13.00;;;;;;;;;;5117510;28;20202;-59
2022/01/16 09:54:47;;;;;;;39.28;13.30;;;;;;;;;;5116987;28;20203;-59
2022/01/16 09:57:14;;;;;;;39.35;14.88;;;;;;;;;;5116969;28;20210;-59
2022/01/16 09:59:45;;;;;;;39.53;15.65;;;;;;;;;;5116703;28;20232;-59
2022/01/16 10:02:12;;;;;;;60.20;28.98;;;;;;;;;;5117367;28;20199;-59
2022/01/16 10:04:41;;;;;;;87.45;50.83;;;;;;;;;;5117088;28;20207;-60
2022/01/16 10:07:09;;;;;;;92.60;52.55;;;;;;;;;;5115953;28;20238;-59
2022/01/16 10:09:37;;;;;;;87.15;50.50;;;;;;;;;;5116101;28;20226;-59
2022/01/16 10:12:13;;;;;;;83.85;47.97;;;;;;;;;;5116697;28;20210;-59
2022/01/16 10:14:47;;;;;;;77.40;46.28;;;;;;;;;;5117429;28;20202;-59
2022/01/16 10:17:16;;;;;;;83.82;45.42;;;;;;;;;;5115647;28;20214;-59
2022/01/16 10:19:44;;;;;;;75.63;42.17;;;;;;;;;;5116375;28;20206;-59
2022/01/16 10:22:13;;;;;;;80.60;42.13;;;;;;;;;;5116510;28;20203;-59
2022/01/16 10:24:41;;;;;;;80.20;41.95;;;;;;;;;;5096607;28;20214;-60
2022/01/16 10:27:17;;;;;;;72.63;40.25;;;;;;;;;;5115081;28;20614;-60
2022/01/16 10:29:46;;;;;;;69.90;38.63;;;;;;;;;;5117018;28;20203;-61
2022/01/16 10:32:17;;;;;;;69.57;37.70;;;;;;;;;;5115597;28;20222;-61
2022/01/16 10:34:44;;;;;;;68.28;36.40;;;;;;;;;;5116289;28;20222;-61
2022/01/16 10:37:26;;;;;;;63.92;35.22;;;;;;;;;;5117519;28;20187;-61
2022/01/16 10:39:54;;;;;;;64.35;34.15;;;;;;;;;;5120728;28;20209;-60
2022/01/16 10:42:23;;;;;;;60.05;31.35;;;;;;;;;;5121016;28;20211;-60
2022/01/16 10:44:56;;;;;;;58.22;30.17;;;;;;;;;;5121423;27;20249;-59
2022/01/16 10:47:27;;;;;;;51.85;29.75;;;;;;;;;;5121293;28;20899;-60
2022/01/16 10:50:01;;;;;;;51.85;27.95;;;;;;;;;;5120537;28;20191;-60
2022/01/16 10:52:29;;;;;;;52.65;28.15;;;;;;;;;;5120479;28;20505;-59
2022/01/16 10:54:56;;;;;;;46.97;26.60;;;;;;;;;;5120424;28;20203;-60
2022/01/16 10:57:25;;;;;;;48.70;26.13;;;;;;;;;;5120673;28;20212;-58
2022/01/16 11:00:04;;;;;;;48.70;26.50;;;;;;;;;;5120522;28;20644;-59
2022/01/16 11:02:32;;;;;;;44.97;25.40;;;;;;;;;;5120760;28;20199;-58
2022/01/16 11:05:05;;;;;;;60.40;35.95;;;;;;;;;;5120024;28;20627;-60
2022/01/16 11:07:32;;;;;;;99.95;69.82;;;;;;;;;;5120183;28;20265;-60
2022/01/16 11:10:02;;;;;;;73.60;49.65;;;;;;;;;;5120154;28;20225;-59
2022/01/16 11:12:35;;;;;;;70.30;47.83;;;;;;;;;;5120865;28;20199;-60
2022/01/16 11:15:04;;;;;;;66.53;47.83;;;;;;;;;;5120287;28;20239;-59
2022/01/16 11:17:33;;;;;;;87.07;46.30;;;;;;;;;;5120810;28;20624;-63
2022/01/16 11:20:00;;;;;;;66.30;44.67;;;;;;;;;;5119870;28;20234;-63
2022/01/16 11:22:34;;;;;;;65.95;45.55;;;;;;;;;;5119898;28;20199;-63
2022/01/16 11:25:12;;;;;;;60.67;42.20;;;;;;;;;;5119462;27;20233;-63
2022/01/16 11:27:41;;;;;;;59.55;41.58;;;;;;;;;;5099540;28;20615;-63
2022/01/16 11:30:10;;;;;;;59.33;40.88;;;;;;;;;;5101807;28;20214;-60
2022/01/16 11:32:38;;;;;;;51.63;38.03;;;;;;;;;;5118854;28;20199;-63
2022/01/16 11:35:07;;;;;;;50.17;38.35;;;;;;;;;;5119559;28;20203;-62
2022/01/16 11:37:35;;;;;;;52.03;35.60;;;;;;;;;;5119644;28;20203;-62
2022/01/16 11:40:18;;;;;;;49.70;35.30;;;;;;;;;;5119701;28;20200;-63
2022/01/16 11:42:45;;;;;;;47.30;35.40;;;;;;;;;;5119432;28;20206;-63
2022/01/16 11:45:13;;;;;;;45.25;31.60;;;;;;;;;;5119457;27;20206;-63
2022/01/16 11:47:57;;;;;;;47.13;31.58;;;;;;;;;;5108612;28;20723;-63
2022/01/16 11:50:34;;;;;;;43.25;30.38;;;;;;;;;;5118858;28;20195;-63
2022/01/16 11:53:02;;;;;;;38.63;27.38;;;;;;;;;;5119312;28;20199;-63
2022/01/16 11:55:34;;;;;;;37.33;27.88;;;;;;;;;;5119003;28;20214;-63
2022/01/16 11:58:03;;;;;;;36.88;25.23;;;;;;;;;;5119276;28;20820;-62
2022/01/16 12:00:43;;;;;;;33.72;24.30;;;;;;;;;;5118286;28;20478;-63
2022/01/16 12:03:25;;;;;;;31.25;23.00;;;;;;;;;;5118191;28;20198;-63
2022/01/16 12:05:56;;;;;;;30.65;21.67;;;;;;;;;;5117831;28;20206;-63
2022/01/16 12:08:35;;;;;;;29.40;20.92;;;;;;;;;;5117367;28;20222;-62
2022/01/16 12:11:03;;;;;;;28.70;20.38;;;;;;;;;;5118365;28;20209;-62
2022/01/16 12:13:48;;;;;;;29.88;21.00;;;;;;;;;;5118432;28;20202;-64
2022/01/16 12:16:48;;;;;;;25.45;19.20;;;;;;;;;;5118120;28;20234;-63
2022/01/16 12:19:36;;;;;;;27.30;17.95;;;;;;;;;;5118182;28;20293;-62
2022/01/16 12:22:05;;;;;;;24.65;16.60;;;;;;;;;;5116764;28;20203;-62
2022/01/16 12:24:36;;;;;;;21.17;15.95;;;;;;;;;;5116675;28;20296;-63
2022/01/16 12:27:23;;;;;;;20.42;15.38;;;;;;;;;;5117458;28;20227;-62
2022/01/16 12:30:09;;;;;;;21.35;14.80;;;;;;;;;;5117558;28;20202;-63
2022/01/16 12:32:53;;;;;;;19.13;14.57;;;;;;;;;;5117644;28;20195;-62
2022/01/16 12:35:39;;;;;;;17.15;13.00;;;;;;;;;;5116619;28;20210;-62
2022/01/16 12:38:08;;;;;;;18.45;13.00;;;;;;;;;;5117168;28;20487;-62
2022/01/16 12:40:37;;;;;;;17.17;11.82;;;;;;;;;;5117065;28;20195;-63
2022/01/16 12:43:08;;;;;;;14.60;11.50;;;;;;;;;;5117450;28;20203;-63
2022/01/16 12:45:37;;;;;;;20.10;11.25;;;;;;;;;;5118086;28;20206;-62
2022/01/16 12:48:05;;;;;;;16.58;11.38;;;;;;;;;;5116943;28;20256;-62
2022/01/16 12:50:32;;;;;;;13.73;10.18;;;;;;;;;;5117605;28;20214;-63
2022/01/16 12:53:00;;;;;;;14.77;10.52;;;;;;;;;;5117697;28;20486;-63
2022/01/16 12:55:28;;;;;;;13.90;10.10;;;;;;;;;;5117774;28;20370;-62
2022/01/16 12:57:56;;;;;;;13.68;9.07;;;;;;;;;;5117283;28;20203;-63
2022/01/16 13:00:24;;;;;;;13.80;9.82;;;;;;;;;;5115191;28;20203;-62
2022/01/16 13:02:54;;;;;;;12.48;8.93;;;;;;;;;;5115944;28;20187;-62
2022/01/16 13:05:21;;;;;;;12.55;8.60;;;;;;;;;;5116867;28;20202;-63
2022/01/16 13:07:49;;;;;;;10.05;7.80;;;;;;;;;;5116767;28;20219;-63
2022/01/16 13:10:16;;;;;;;12.68;7.88;;;;;;;;;;5115586;28;20210;-62
2022/01/16 13:12:45;;;;;;;13.20;8.20;;;;;;;;;;5116517;28;20203;-62
2022/01/16 13:15:14;;;;;;;11.93;7.75;;;;;;;;;;5116355;28;20211;-62
2022/01/16 13:17:42;;;;;;;11.82;7.38;;;;;;;;;;5115516;28;20196;-62
2022/01/16 13:20:14;;;;;;;11.32;7.18;;;;;;;;;;5114051;28;20544;-62
2022/01/16 13:22:42;;;;;;;10.23;6.95;;;;;;;;;;5115634;28;20199;-62
2022/01/16 13:25:10;;;;;;;11.70;6.97;;;;;;;;;;5115319;28;20482;-63
2022/01/16 13:27:38;;;;;;;14.38;7.22;;;;;;;;;;5114190;28;20222;-63
2022/01/16 13:30:10;;;;;;;12.38;6.43;;;;;;;;;;5095517;28;20199;-62
2022/01/16 13:32:38;;;;;;;8.40;5.70;;;;;;;;;;5110883;28;20226;-63
2022/01/16 13:35:07;;;;;;;8.02;5.70;;;;;;;;;;5115880;28;20203;-62
2022/01/16 13:37:35;;;;;;;7.90;5.70;;;;;;;;;;5115232;28;20206;-63
2022/01/16 13:40:05;;;;;;;9.20;5.50;;;;;;;;;;5114476;27;20203;-62
2022/01/16 13:42:41;;;;;;;8.57;5.43;;;;;;;;;;5114313;28;20273;-62
2022/01/16 13:45:17;;;;;;;7.60;5.40;;;;;;;;;;5115772;28;20490;-62
2022/01/16 13:47:51;;;;;;;8.05;5.55;;;;;;;;;;5114896;28;20210;-61
2022/01/16 13:50:19;;;;;;;9.13;5.22;;;;;;;;;;5115018;28;20219;-62
2022/01/16 13:52:52;;;;;;;6.10;4.55;;;;;;;;;;5114485;28;20202;-63
2022/01/16 13:55:20;;;;;;;6.60;4.88;;;;;;;;;;5114706;28;20199;-62
2022/01/16 13:57:47;;;;;;;5.85;4.88;;;;;;;;;;5114917;28;20210;-62
2022/01/16 14:00:15;;;;;;;6.82;4.55;;;;;;;;;;5115163;28;20606;-62
2022/01/16 14:02:44;;;;;;;5.68;4.60;;;;;;;;;;5114415;28;20199;-61
2022/01/16 14:05:23;;;;;;;6.35;4.85;;;;;;;;;;5114820;28;20214;-61
2022/01/16 14:07:50;;;;;;;5.47;4.18;;;;;;;;;;5115084;28;20609;-60
2022/01/16 14:10:32;;;;;;;6.13;4.28;;;;;;;;;;5115396;28;20210;-62
2022/01/16 14:13:00;;;;;;;5.03;3.92;;;;;;;;;;5114085;28;20206;-61
2022/01/16 14:15:27;;;;;;;5.25;4.18;;;;;;;;;;5114631;28;20191;-61
2022/01/16 14:18:05;;;;;;;7.18;4.68;;;;;;;;;;5115195;28;20195;-61
2022/01/16 14:20:48;;;;;;;4.93;3.70;;;;;;;;;;5115463;28;20279;-61
2022/01/16 14:23:17;;;;;;;6.00;3.83;;;;;;;;;;5116065;28;20604;-61
2022/01/16 14:25:44;;;;;;;6.00;3.75;;;;;;;;;;5114736;28;20213;-61
2022/01/16 14:28:12;;;;;;;4.45;3.97;;;;;;;;;;5114704;28;20230;-62
2022/01/16 14:30:39;;;;;;;6.15;3.97;;;;;;;;;;5114600;28;20203;-62
2022/01/16 14:33:08;;;;;;;5.57;3.95;;;;;;;;;;5094742;28;20214;-62
2022/01/16 14:35:35;;;;;;;3.97;3.50;;;;;;;;;;5113116;28;20317;-62
2022/01/16 14:38:03;;;;;;;4.55;3.30;;;;;;;;;;5115037;28;20207;-61
2022/01/16 14:40:32;;;;;;;3.92;3.58;;;;;;;;;;5113618;28;20214;-61
2022/01/16 14:43:04;;;;;;;4.80;3.20;;;;;;;;;;5114791;28;20269;-60
2022/01/16 14:45:32;;;;;;;3.72;3.20;;;;;;;;;;5114262;28;20663;-62
2022/01/16 14:47:59;;;;;;;5.13;3.53;;;;;;;;;;5115161;28;20223;-62
2022/01/16 14:50:28;;;;;;;4.20;3.15;;;;;;;;;;5113418;28;20206;-62
2022/01/16 14:52:55;;;;;;;3.60;3.03;;;;;;;;;;5114404;28;20199;-62
2022/01/16 14:55:23;;;;;;;3.78;3.15;;;;;;;;;;5114849;28;20203;-62
2022/01/16 14:57:50;;;;;;;6.00;3.10;;;;;;;;;;5115245;28;20221;-63
2022/01/16 15:00:17;;;;;;;4.60;3.25;;;;;;;;;;5115094;28;20210;-62
2022/01/16 15:02:45;;;;;;;34.08;27.77;;;;;;;;;;5114845;28;20206;-62
2022/01/16 15:05:13;;;;;;;27.08;22.17;;;;;;;;;;5115053;28;20235;-62
2022/01/16 15:07:44;;;;;;;22.10;18.23;;;;;;;;;;5115032;28;20292;-63
2022/01/16 15:10:12;;;;;;;21.38;18.30;;;;;;;;;;5113968;28;20590;-62
2022/01/16 15:12:40;;;;;;;20.52;17.70;;;;;;;;;;5116174;28;20478;-62
2022/01/16 15:15:09;;;;;;;18.08;15.88;;;;;;;;;;5115661;28;20745;-61
2022/01/16 15:17:42;;;;;;;18.77;15.77;;;;;;;;;;5115445;28;20479;-62
2022/01/16 15:20:16;;;;;;;17.65;14.93;;;;;;;;;;5115105;28;20238;-62
2022/01/16 15:22:48;;;;;;;16.48;14.20;;;;;;;;;;5114634;28;20226;-62
2022/01/16 15:25:15;;;;;;;16.50;14.27;;;;;;;;;;5118940;28;20203;-62
2022/01/16 15:27:42;;;;;;;16.30;14.00;;;;;;;;;;5118761;28;20219;-62
2022/01/16 15:30:13;;;;;;;35.55;31.70;;;;;;;;;;5119079;28;20283;-62
2022/01/16 15:32:41;;;;;;;72.82;64.82;;;;;;;;;;5119176;28;20520;-62